Monday, December 18, 2017, 5:10 PM EST
Back to Local

KRDG, Reading Regional Airport

Location: Reading, PA, United States Lat: 40.367
Local Time: 5:10 PM EST (22:10 GMT) Lon: -75.967
Time Zone: US/Eastern Elev: 344 ft

Show me the last for .
Show Decoded

2017-12-18 16:54 METAR KRDG 182154Z 26004KT 10SM FEW035 SCT042 OVC055 08/03 A2998 RMK AO2 SLP158
                 T00780028 =
2017-12-18 15:54 METAR KRDG 182054Z 27006KT 10SM BKN049 08/02 A2999 RMK AO2 SLP161 T00780022
                 55004 =
2017-12-18 14:54 METAR KRDG 181954Z 28009KT 7SM BR OVC085 08/02 A2997 RMK AO2 SLP157 T00780022 =
2017-12-18 13:54 METAR KRDG 181854Z 27006KT 7SM BR SCT055 08/02 A2998 RMK AO2 SLP159 T00830022 =
2017-12-18 12:54 METAR KRDG 181754Z 00000KT 6SM HZ BKN055 06/02 A3000 RMK AO2 SLP165 T00610017
                 10067 21006 58038 =
2017-12-18 11:54 METAR KRDG 181654Z 00000KT 6SM HZ CLR 06/02 A3004 RMK AO2 SLP180 T00610022 =
2017-12-18 10:54 METAR KRDG 181554Z 24003KT 7SM SCT025 OVC065 04/02 A3009 RMK AO2 SLP195
                 T00440022 =
2017-12-18 10:41 METAR KRDG 181541Z 00000KT 7SM SCT025 OVC065 04/02 A3010 RMK AO2 T00390017 =
2017-12-18 09:54 METAR KRDG 181454Z 25003KT 2SM BR OVC070 03/02 A3011 RMK AO2 SFC VIS 5 SLP204
                 T00280017 55000 =
2017-12-18 09:26 METAR KRDG 181426Z 00000KT 1 1/2SM BR SCT004 OVC060 02/02 A3010 RMK AO2 SFC VIS
                 5 T00220017 =
2017-12-18 08:54 METAR KRDG 181354Z 00000KT 1 3/4SM R36/5000VP6000FT BR OVC003 02/02 A3010 RMK
                 AO2 SLP202 T00170017 =
2017-12-18 08:24 METAR KRDG 181324Z 00000KT 1 3/4SM R36/4500VP6000FT BR OVC004 01/01 A3011 RMK
                 AO2 T00110011 =
2017-12-18 08:17 METAR KRDG 181317Z 00000KT 1 3/4SM R36/4500VP6000FT BR BKN002 OVC006 01/01 A3011
                 RMK AO2 T00110011 =
2017-12-18 08:09 METAR KRDG 181309Z 00000KT 2SM R36/5500VP6000FT BR OVC004 01/01 A3011 RMK AO2
                 T00110011 =
2017-12-18 07:54 METAR KRDG 181254Z 03003KT 4SM BR BKN007 OVC047 01/01 A3011 RMK AO2 SLP205
                 T00110006 =
2017-12-18 07:39 METAR KRDG 181239Z 35003KT 4SM BR BKN008 BKN045 00/00 A3012 RMK AO2 CIG 006V010
                 T00000000 =
2017-12-18 07:32 METAR KRDG 181232Z 01003KT 5SM BR SCT010 BKN045 00/00 A3011 RMK AO2 T00000000 =
2017-12-18 07:24 METAR KRDG 181224Z 05003KT 8SM BKN010 00/M01 A3010 RMK AO2 T00001006 =
2017-12-18 06:54 METAR KRDG 181154Z 34004KT 9SM BKN009 M01/M02 A3011 RMK AO2 SLP204 T10061017
                 10017 21006 55002 =
2017-12-18 06:51 METAR KRDG 181151Z 35003KT 9SM BKN009 00/M02 A3011 RMK AO2 =
2017-12-18 06:06 METAR KRDG 181106Z 00000KT 10SM SCT008 OVC060 01/M01 A3011 RMK AO2 T00111006 =
2017-12-18 05:54 METAR KRDG 181054Z 02003KT 10SM FEW010 OVC060 01/M01 A3011 RMK AO2 SLP203
                 T00111006 =
2017-12-18 05:18 METAR KRDG 181018Z 34004KT 10SM BKN010 OVC065 01/M01 A3011 RMK AO2 T00111006 =
2017-12-18 04:54 METAR KRDG 180954Z 35003KT 10SM SCT011 OVC075 01/M01 A3012 RMK AO2 SLP206
                 T00111011 =
2017-12-18 04:11 METAR KRDG 180911Z 35004KT 10SM SCT012 OVC070 01/M01 A3013 RMK AO2 T00111011 =
2017-12-18 03:54 METAR KRDG 180854Z 34004KT 10SM BKN012 OVC070 01/M01 A3013 RMK AO2 SLP212
                 T00111011 56002 =
2017-12-18 03:38 METAR KRDG 180838Z 33004KT 10SM BKN012 OVC070 01/M01 A3014 RMK AO2 T00111006 =
2017-12-18 02:54 METAR KRDG 180754Z 00000KT 10SM OVC070 02/M01 A3013 RMK AO2 SLP212 T00171006 =
2017-12-18 01:54 METAR KRDG 180654Z 36003KT 10SM BKN055 OVC070 02/M01 A3013 RMK AO2 SLP212
                 T00171011 =
2017-12-18 00:54 METAR KRDG 180554Z 34004KT 10SM BKN055 OVC080 01/M01 A3014 RMK AO2 SLP214
                 T00111011 10022 20011 56014 =
2017-12-17 23:54 METAR KRDG 180454Z 36005KT 10SM FEW055 OVC075 01/M01 A3015 RMK AO2 SLP216
                 T00111011 400391022 =
2017-12-17 22:54 METAR KRDG 180354Z 04004KT 10SM SCT060 BKN090 OVC110 02/M01 A3016 RMK AO2 SLP221
                 T00171011 =
2017-12-17 21:54 METAR KRDG 180254Z 00000KT 10SM OVC085 02/M01 A3018 RMK AO2 SLP228 T00171011
                 58013 =
2017-12-17 20:54 METAR KRDG 180154Z 35003KT 10SM OVC110 01/M02 A3019 RMK AO2 SLP232 T00111017 =
2017-12-17 19:54 METAR KRDG 180054Z 33003KT 10SM OVC120 01/M02 A3021 RMK AO2 SLP237 T00111017 =
2017-12-17 18:54 METAR KRDG 172354Z 00000KT 10SM CLR 02/M01 A3022 RMK AO2 SLP241 T00171011 10039
                 20017 51010 =
2017-12-17 17:54 METAR KRDG 172254Z 34005KT 10SM CLR 02/M01 A3022 RMK AO2 SLP241 T00221011 =

Support USWX by starting your Amazon purchase here.